sensor_id;sensor_type;location;lat;lon;timestamp;temperature;humidity
7494;DHT22;3788;49.902;8.590;2024-02-16T00:00:06;12.30;99.90
7494;DHT22;3788;49.902;8.590;2024-02-16T00:02:32;12.30;99.90
7494;DHT22;3788;49.902;8.590;2024-02-16T00:04:59;12.30;99.90
7494;DHT22;3788;49.902;8.590;2024-02-16T00:07:26;12.30;99.90
7494;DHT22;3788;49.902;8.590;2024-02-16T00:09:54;12.30;99.90
7494;DHT22;3788;49.902;8.590;2024-02-16T00:12:20;12.30;99.90
7494;DHT22;3788;49.902;8.590;2024-02-16T00:14:47;12.30;99.90
7494;DHT22;3788;49.902;8.590;2024-02-16T00:17:14;12.30;99.90
7494;DHT22;3788;49.902;8.590;2024-02-16T00:19:41;12.30;99.90
7494;DHT22;3788;49.902;8.590;2024-02-16T00:22:07;12.40;99.90
7494;DHT22;3788;49.902;8.590;2024-02-16T00:24:34;12.40;99.90
7494;DHT22;3788;49.902;8.590;2024-02-16T00:27:03;12.40;99.90
7494;DHT22;3788;49.902;8.590;2024-02-16T00:29:30;12.40;99.90
7494;DHT22;3788;49.902;8.590;2024-02-16T00:31:57;12.50;99.90
7494;DHT22;3788;49.902;8.590;2024-02-16T00:34:24;12.50;99.90
7494;DHT22;3788;49.902;8.590;2024-02-16T00:36:51;12.50;99.90
7494;DHT22;3788;49.902;8.590;2024-02-16T00:39:18;12.50;99.90
7494;DHT22;3788;49.902;8.590;2024-02-16T00:41:45;12.50;99.90
7494;DHT22;3788;49.902;8.590;2024-02-16T00:44:13;12.50;99.90
7494;DHT22;3788;49.902;8.590;2024-02-16T00:46:39;12.50;99.90
7494;DHT22;3788;49.902;8.590;2024-02-16T00:49:06;12.50;99.90
7494;DHT22;3788;49.902;8.590;2024-02-16T00:51:35;12.50;99.90
7494;DHT22;3788;49.902;8.590;2024-02-16T00:54:02;12.40;99.90
7494;DHT22;3788;49.902;8.590;2024-02-16T00:56:29;12.30;99.90
7494;DHT22;3788;49.902;8.590;2024-02-16T00:58:56;12.30;99.90
7494;DHT22;3788;49.902;8.590;2024-02-16T01:01:24;12.20;99.90
7494;DHT22;3788;49.902;8.590;2024-02-16T01:03:51;12.10;99.90
7494;DHT22;3788;49.902;8.590;2024-02-16T01:06:18;12.10;99.90
7494;DHT22;3788;49.902;8.590;2024-02-16T01:08:45;12.10;99.90
7494;DHT22;3788;49.902;8.590;2024-02-16T01:11:12;12.10;99.90
7494;DHT22;3788;49.902;8.590;2024-02-16T01:13:39;12.00;99.90
7494;DHT22;3788;49.902;8.590;2024-02-16T01:16:06;12.00;99.90
7494;DHT22;3788;49.902;8.590;2024-02-16T01:18:34;11.90;99.90
7494;DHT22;3788;49.902;8.590;2024-02-16T01:21:02;11.80;99.90
7494;DHT22;3788;49.902;8.590;2024-02-16T01:23:29;11.80;99.90
7494;DHT22;3788;49.902;8.590;2024-02-16T01:25:56;11.80;99.90
7494;DHT22;3788;49.902;8.590;2024-02-16T01:28:23;11.80;99.90
7494;DHT22;3788;49.902;8.590;2024-02-16T01:30:49;11.70;99.90
7494;DHT22;3788;49.902;8.590;2024-02-16T01:33:16;11.70;99.90
7494;DHT22;3788;49.902;8.590;2024-02-16T01:35:44;11.70;99.90
7494;DHT22;3788;49.902;8.590;2024-02-16T01:38:11;11.70;99.90
7494;DHT22;3788;49.902;8.590;2024-02-16T01:40:39;11.60;99.90
7494;DHT22;3788;49.902;8.590;2024-02-16T01:43:06;11.60;99.90
7494;DHT22;3788;49.902;8.590;2024-02-16T01:45:32;11.50;99.90
7494;DHT22;3788;49.902;8.590;2024-02-16T01:47:59;11.50;99.90
7494;DHT22;3788;49.902;8.590;2024-02-16T01:50:26;11.50;99.90
7494;DHT22;3788;49.902;8.590;2024-02-16T01:52:56;11.50;99.90
7494;DHT22;3788;49.902;8.590;2024-02-16T01:55:23;11.40;99.90
7494;DHT22;3788;49.902;8.590;2024-02-16T01:57:50;11.40;99.90
7494;DHT22;3788;49.902;8.590;2024-02-16T02:00:16;11.40;99.90
7494;DHT22;3788;49.902;8.590;2024-02-16T02:02:45;11.40;99.90
7494;DHT22;3788;49.902;8.590;2024-02-16T02:05:12;11.30;99.90
7494;DHT22;3788;49.902;8.590;2024-02-16T02:07:40;11.30;99.90
7494;DHT22;3788;49.902;8.590;2024-02-16T02:10:09;11.30;99.90
7494;DHT22;3788;49.902;8.590;2024-02-16T02:12:38;11.30;99.90
7494;DHT22;3788;49.902;8.590;2024-02-16T02:15:05;11.20;99.90
7494;DHT22;3788;49.902;8.590;2024-02-16T02:17:32;11.20;99.90
7494;DHT22;3788;49.902;8.590;2024-02-16T02:19:58;11.20;99.90
7494;DHT22;3788;49.902;8.590;2024-02-16T02:22:26;11.10;99.90
7494;DHT22;3788;49.902;8.590;2024-02-16T02:24:53;11.00;99.90
7494;DHT22;3788;49.902;8.590;2024-02-16T02:27:21;11.00;99.90
7494;DHT22;3788;49.902;8.590;2024-02-16T02:29:48;10.90;99.90
7494;DHT22;3788;49.902;8.590;2024-02-16T02:32:15;10.90;99.90
7494;DHT22;3788;49.902;8.590;2024-02-16T02:34:41;10.90;99.90
7494;DHT22;3788;49.902;8.590;2024-02-16T02:37:08;10.90;99.90
7494;DHT22;3788;49.902;8.590;2024-02-16T02:39:36;10.90;99.90
7494;DHT22;3788;49.902;8.590;2024-02-16T02:42:03;10.90;99.90
7494;DHT22;3788;49.902;8.590;2024-02-16T02:44:30;10.90;99.90
7494;DHT22;3788;49.902;8.590;2024-02-16T02:46:58;11.00;99.90
7494;DHT22;3788;49.902;8.590;2024-02-16T02:49:24;11.00;99.90
7494;DHT22;3788;49.902;8.590;2024-02-16T02:51:51;11.00;99.90
7494;DHT22;3788;49.902;8.590;2024-02-16T02:54:17;11.10;99.90
7494;DHT22;3788;49.902;8.590;2024-02-16T02:56:46;11.10;99.90
7494;DHT22;3788;49.902;8.590;2024-02-16T02:59:13;11.10;99.90
7494;DHT22;3788;49.902;8.590;2024-02-16T03:01:40;11.10;99.90
7494;DHT22;3788;49.902;8.590;2024-02-16T03:04:06;11.10;99.90
7494;DHT22;3788;49.902;8.590;2024-02-16T03:06:34;11.10;99.90
7494;DHT22;3788;49.902;8.590;2024-02-16T03:09:01;11.10;99.90
7494;DHT22;3788;49.902;8.590;2024-02-16T03:11:28;11.10;99.90
7494;DHT22;3788;49.902;8.590;2024-02-16T03:13:56;11.10;99.90
7494;DHT22;3788;49.902;8.590;2024-02-16T03:16:23;11.10;99.90
7494;DHT22;3788;49.902;8.590;2024-02-16T03:18:49;11.20;99.90
7494;DHT22;3788;49.902;8.590;2024-02-16T03:21:16;11.10;99.90
7494;DHT22;3788;49.902;8.590;2024-02-16T03:23:43;11.10;99.90
7494;DHT22;3788;49.902;8.590;2024-02-16T03:26:14;11.10;99.90
7494;DHT22;3788;49.902;8.590;2024-02-16T03:28:41;11.00;99.90
7494;DHT22;3788;49.902;8.590;2024-02-16T03:31:16;11.00;99.90
7494;DHT22;3788;49.902;8.590;2024-02-16T03:33:43;11.00;99.90
7494;DHT22;3788;49.902;8.590;2024-02-16T03:36:10;10.90;99.90
7494;DHT22;3788;49.902;8.590;2024-02-16T03:38:37;10.90;99.90
7494;DHT22;3788;49.902;8.590;2024-02-16T03:41:04;10.90;99.90
7494;DHT22;3788;49.902;8.590;2024-02-16T03:43:31;10.90;99.90
7494;DHT22;3788;49.902;8.590;2024-02-16T03:45:58;10.90;99.90
7494;DHT22;3788;49.902;8.590;2024-02-16T03:48:26;10.90;99.90
7494;DHT22;3788;49.902;8.590;2024-02-16T03:50:53;10.90;99.90
7494;DHT22;3788;49.902;8.590;2024-02-16T03:53:19;10.90;99.90
7494;DHT22;3788;49.902;8.590;2024-02-16T03:55:46;10.90;99.90
7494;DHT22;3788;49.902;8.590;2024-02-16T03:58:13;11.00;99.90
7494;DHT22;3788;49.902;8.590;2024-02-16T04:00:39;11.00;99.90
7494;DHT22;3788;49.902;8.590;2024-02-16T04:03:06;11.10;99.90
7494;DHT22;3788;49.902;8.590;2024-02-16T04:05:34;11.20;99.90
7494;DHT22;3788;49.902;8.590;2024-02-16T04:08:01;11.20;99.90
7494;DHT22;3788;49.902;8.590;2024-02-16T04:10:29;11.30;99.90
7494;DHT22;3788;49.902;8.590;2024-02-16T04:12:56;11.30;99.90
7494;DHT22;3788;49.902;8.590;2024-02-16T04:15:22;11.30;99.90
7494;DHT22;3788;49.902;8.590;2024-02-16T04:17:49;11.40;99.90
7494;DHT22;3788;49.902;8.590;2024-02-16T04:20:16;11.40;99.90
7494;DHT22;3788;49.902;8.590;2024-02-16T04:22:44;11.40;99.90
7494;DHT22;3788;49.902;8.590;2024-02-16T04:25:11;11.40;99.90
7494;DHT22;3788;49.902;8.590;2024-02-16T04:27:37;11.50;99.90
7494;DHT22;3788;49.902;8.590;2024-02-16T04:30:05;11.50;99.90
7494;DHT22;3788;49.902;8.590;2024-02-16T04:32:32;11.50;99.90
7494;DHT22;3788;49.902;8.590;2024-02-16T04:34:59;11.50;99.90
7494;DHT22;3788;49.902;8.590;2024-02-16T04:37:26;11.50;99.90
7494;DHT22;3788;49.902;8.590;2024-02-16T04:39:54;11.50;99.90
7494;DHT22;3788;49.902;8.590;2024-02-16T04:42:20;11.60;99.90
7494;DHT22;3788;49.902;8.590;2024-02-16T04:44:48;11.60;99.90
7494;DHT22;3788;49.902;8.590;2024-02-16T04:47:14;11.60;99.90
7494;DHT22;3788;49.902;8.590;2024-02-16T04:49:43;11.60;99.90
7494;DHT22;3788;49.902;8.590;2024-02-16T04:52:09;11.60;99.90
7494;DHT22;3788;49.902;8.590;2024-02-16T04:54:36;11.60;99.90
7494;DHT22;3788;49.902;8.590;2024-02-16T04:57:07;11.60;99.90
7494;DHT22;3788;49.902;8.590;2024-02-16T04:59:33;11.60;99.90
7494;DHT22;3788;49.902;8.590;2024-02-16T05:02:00;11.60;99.90
7494;DHT22;3788;49.902;8.590;2024-02-16T05:04:29;11.60;99.90
7494;DHT22;3788;49.902;8.590;2024-02-16T05:06:55;11.60;99.90
7494;DHT22;3788;49.902;8.590;2024-02-16T05:09:22;11.60;99.90
7494;DHT22;3788;49.902;8.590;2024-02-16T05:11:52;11.60;99.90
7494;DHT22;3788;49.902;8.590;2024-02-16T05:14:20;11.60;99.90
7494;DHT22;3788;49.902;8.590;2024-02-16T05:16:47;11.70;99.90
7494;DHT22;3788;49.902;8.590;2024-02-16T05:19:14;11.70;99.90
7494;DHT22;3788;49.902;8.590;2024-02-16T05:21:40;11.70;99.90
7494;DHT22;3788;49.902;8.590;2024-02-16T05:24:07;11.70;99.90
7494;DHT22;3788;49.902;8.590;2024-02-16T05:26:34;11.70;99.90
7494;DHT22;3788;49.902;8.590;2024-02-16T05:29:00;11.70;99.90
7494;DHT22;3788;49.902;8.590;2024-02-16T05:31:28;11.70;99.90
7494;DHT22;3788;49.902;8.590;2024-02-16T05:33:56;11.70;99.90
7494;DHT22;3788;49.902;8.590;2024-02-16T05:36:23;11.70;99.90
7494;DHT22;3788;49.902;8.590;2024-02-16T05:38:55;11.70;99.90
7494;DHT22;3788;49.902;8.590;2024-02-16T05:41:24;11.70;99.90
7494;DHT22;3788;49.902;8.590;2024-02-16T05:43:51;11.70;99.90
7494;DHT22;3788;49.902;8.590;2024-02-16T05:46:18;11.70;99.90
7494;DHT22;3788;49.902;8.590;2024-02-16T05:48:46;11.70;99.90
7494;DHT22;3788;49.902;8.590;2024-02-16T05:51:13;11.60;99.90
7494;DHT22;3788;49.902;8.590;2024-02-16T05:53:40;11.60;99.90
7494;DHT22;3788;49.902;8.590;2024-02-16T05:56:07;11.60;99.90
7494;DHT22;3788;49.902;8.590;2024-02-16T05:58:35;11.60;99.90
7494;DHT22;3788;49.902;8.590;2024-02-16T06:01:02;11.60;99.90
7494;DHT22;3788;49.902;8.590;2024-02-16T06:03:28;11.50;99.90
7494;DHT22;3788;49.902;8.590;2024-02-16T06:05:56;11.60;99.90
7494;DHT22;3788;49.902;8.590;2024-02-16T06:08:23;11.50;99.90
7494;DHT22;3788;49.902;8.590;2024-02-16T06:10:50;11.50;99.90
7494;DHT22;3788;49.902;8.590;2024-02-16T06:13:20;11.50;99.90
7494;DHT22;3788;49.902;8.590;2024-02-16T06:15:47;11.50;99.90
7494;DHT22;3788;49.902;8.590;2024-02-16T06:18:14;11.40;99.90
7494;DHT22;3788;49.902;8.590;2024-02-16T06:20:40;11.40;99.90
7494;DHT22;3788;49.902;8.590;2024-02-16T06:23:09;11.40;99.90
7494;DHT22;3788;49.902;8.590;2024-02-16T06:25:35;11.50;99.90
7494;DHT22;3788;49.902;8.590;2024-02-16T06:28:02;11.50;99.90
7494;DHT22;3788;49.902;8.590;2024-02-16T06:30:30;11.50;99.90
7494;DHT22;3788;49.902;8.590;2024-02-16T06:32:56;11.50;99.90
7494;DHT22;3788;49.902;8.590;2024-02-16T06:35:24;11.50;99.90
7494;DHT22;3788;49.902;8.590;2024-02-16T06:37:51;11.50;99.90
7494;DHT22;3788;49.902;8.590;2024-02-16T06:40:18;11.50;99.90
7494;DHT22;3788;49.902;8.590;2024-02-16T06:42:46;11.50;99.90
7494;DHT22;3788;49.902;8.590;2024-02-16T06:45:13;11.60;99.90
7494;DHT22;3788;49.902;8.590;2024-02-16T06:47:39;11.60;99.90
7494;DHT22;3788;49.902;8.590;2024-02-16T06:50:07;11.60;99.90
7494;DHT22;3788;49.902;8.590;2024-02-16T06:52:33;11.60;99.90
7494;DHT22;3788;49.902;8.590;2024-02-16T06:55:00;11.60;99.90
7494;DHT22;3788;49.902;8.590;2024-02-16T06:57:28;11.60;99.90
7494;DHT22;3788;49.902;8.590;2024-02-16T06:59:56;11.70;99.90
7494;DHT22;3788;49.902;8.590;2024-02-16T07:02:23;11.70;99.90
7494;DHT22;3788;49.902;8.590;2024-02-16T07:04:50;11.70;99.90
7494;DHT22;3788;49.902;8.590;2024-02-16T07:07:17;11.70;99.90
7494;DHT22;3788;49.902;8.590;2024-02-16T07:09:44;11.70;99.90
7494;DHT22;3788;49.902;8.590;2024-02-16T07:12:11;11.70;99.90
7494;DHT22;3788;49.902;8.590;2024-02-16T07:14:39;11.70;99.90
7494;DHT22;3788;49.902;8.590;2024-02-16T07:17:06;11.70;99.90
7494;DHT22;3788;49.902;8.590;2024-02-16T07:19:35;11.80;99.90
7494;DHT22;3788;49.902;8.590;2024-02-16T07:22:01;11.80;99.90
7494;DHT22;3788;49.902;8.590;2024-02-16T07:24:28;11.80;99.90
7494;DHT22;3788;49.902;8.590;2024-02-16T07:26:55;11.80;99.90
7494;DHT22;3788;49.902;8.590;2024-02-16T07:29:21;11.80;99.90
7494;DHT22;3788;49.902;8.590;2024-02-16T07:31:49;11.80;99.90
7494;DHT22;3788;49.902;8.590;2024-02-16T07:34:17;11.90;99.90
7494;DHT22;3788;49.902;8.590;2024-02-16T07:36:44;11.90;99.90
7494;DHT22;3788;49.902;8.590;2024-02-16T07:39:10;12.00;99.90
7494;DHT22;3788;49.902;8.590;2024-02-16T07:41:38;12.00;99.90
7494;DHT22;3788;49.902;8.590;2024-02-16T07:44:04;12.00;99.90
7494;DHT22;3788;49.902;8.590;2024-02-16T07:46:31;12.00;99.90
7494;DHT22;3788;49.902;8.590;2024-02-16T07:48:59;12.00;99.90
7494;DHT22;3788;49.902;8.590;2024-02-16T07:51:26;12.10;99.90
7494;DHT22;3788;49.902;8.590;2024-02-16T07:53:52;12.20;99.90
7494;DHT22;3788;49.902;8.590;2024-02-16T07:56:19;12.20;99.90
7494;DHT22;3788;49.902;8.590;2024-02-16T07:58:46;12.30;99.90
7494;DHT22;3788;49.902;8.590;2024-02-16T08:01:13;12.30;99.90
7494;DHT22;3788;49.902;8.590;2024-02-16T08:03:40;12.40;99.90
7494;DHT22;3788;49.902;8.590;2024-02-16T08:06:08;12.40;99.90
7494;DHT22;3788;49.902;8.590;2024-02-16T08:08:35;12.50;99.90
7494;DHT22;3788;49.902;8.590;2024-02-16T08:11:03;12.70;99.90
7494;DHT22;3788;49.902;8.590;2024-02-16T08:13:30;12.90;99.90
7494;DHT22;3788;49.902;8.590;2024-02-16T08:15:57;13.40;99.90
7494;DHT22;3788;49.902;8.590;2024-02-16T08:18:23;13.60;99.90
7494;DHT22;3788;49.902;8.590;2024-02-16T08:20:50;13.70;99.90
7494;DHT22;3788;49.902;8.590;2024-02-16T08:23:18;13.60;99.90
7494;DHT22;3788;49.902;8.590;2024-02-16T08:25:45;13.50;99.90
7494;DHT22;3788;49.902;8.590;2024-02-16T08:28:12;13.40;99.90
7494;DHT22;3788;49.902;8.590;2024-02-16T08:30:39;13.30;99.90
7494;DHT22;3788;49.902;8.590;2024-02-16T08:33:07;13.30;99.90
7494;DHT22;3788;49.902;8.590;2024-02-16T08:35:33;13.20;99.90
7494;DHT22;3788;49.902;8.590;2024-02-16T08:38:00;13.20;99.90
7494;DHT22;3788;49.902;8.590;2024-02-16T08:40:28;13.20;99.90
7494;DHT22;3788;49.902;8.590;2024-02-16T08:42:54;13.20;99.90
7494;DHT22;3788;49.902;8.590;2024-02-16T08:45:21;13.20;99.90
7494;DHT22;3788;49.902;8.590;2024-02-16T08:47:47;13.30;99.90
7494;DHT22;3788;49.902;8.590;2024-02-16T08:50:14;13.30;99.90
7494;DHT22;3788;49.902;8.590;2024-02-16T08:52:40;13.30;99.90
7494;DHT22;3788;49.902;8.590;2024-02-16T08:55:08;13.30;99.90
7494;DHT22;3788;49.902;8.590;2024-02-16T08:57:36;13.40;99.90
7494;DHT22;3788;49.902;8.590;2024-02-16T09:00:03;13.40;99.90
7494;DHT22;3788;49.902;8.590;2024-02-16T09:02:30;13.40;99.90
7494;DHT22;3788;49.902;8.590;2024-02-16T09:04:57;13.40;99.90
7494;DHT22;3788;49.902;8.590;2024-02-16T09:07:23;13.40;99.90
7494;DHT22;3788;49.902;8.590;2024-02-16T09:09:51;13.40;99.90
7494;DHT22;3788;49.902;8.590;2024-02-16T09:12:18;13.40;99.90
7494;DHT22;3788;49.902;8.590;2024-02-16T09:14:46;13.40;99.90
7494;DHT22;3788;49.902;8.590;2024-02-16T09:17:12;13.40;99.90
7494;DHT22;3788;49.902;8.590;2024-02-16T09:19:39;13.40;99.90
7494;DHT22;3788;49.902;8.590;2024-02-16T09:22:06;13.40;99.90
7494;DHT22;3788;49.902;8.590;2024-02-16T09:24:32;13.50;99.90
7494;DHT22;3788;49.902;8.590;2024-02-16T09:26:59;13.60;99.90
7494;DHT22;3788;49.902;8.590;2024-02-16T09:29:28;13.60;99.90
7494;DHT22;3788;49.902;8.590;2024-02-16T09:31:56;13.70;99.90
7494;DHT22;3788;49.902;8.590;2024-02-16T09:34:23;13.70;99.90
7494;DHT22;3788;49.902;8.590;2024-02-16T09:36:50;13.70;99.90
7494;DHT22;3788;49.902;8.590;2024-02-16T09:39:16;13.80;99.90
7494;DHT22;3788;49.902;8.590;2024-02-16T09:41:43;13.90;99.90
7494;DHT22;3788;49.902;8.590;2024-02-16T09:44:13;13.80;99.90
7494;DHT22;3788;49.902;8.590;2024-02-16T09:46:40;13.90;99.90
7494;DHT22;3788;49.902;8.590;2024-02-16T09:49:08;13.90;99.90
7494;DHT22;3788;49.902;8.590;2024-02-16T09:51:36;14.00;99.90
7494;DHT22;3788;49.902;8.590;2024-02-16T09:54:03;14.00;99.90
7494;DHT22;3788;49.902;8.590;2024-02-16T09:56:30;14.00;99.90
7494;DHT22;3788;49.902;8.590;2024-02-16T09:58:57;14.00;99.90
7494;DHT22;3788;49.902;8.590;2024-02-16T10:01:24;14.10;99.90
7494;DHT22;3788;49.902;8.590;2024-02-16T10:03:51;14.10;99.90
7494;DHT22;3788;49.902;8.590;2024-02-16T10:06:19;14.20;99.90
7494;DHT22;3788;49.902;8.590;2024-02-16T10:08:48;14.30;99.90
7494;DHT22;3788;49.902;8.590;2024-02-16T10:11:16;14.40;99.90
7494;DHT22;3788;49.902;8.590;2024-02-16T10:13:54;14.60;99.90
7494;DHT22;3788;49.902;8.590;2024-02-16T10:16:22;14.70;99.90
7494;DHT22;3788;49.902;8.590;2024-02-16T10:18:49;14.80;99.90
7494;DHT22;3788;49.902;8.590;2024-02-16T10:21:25;14.90;99.90
7494;DHT22;3788;49.902;8.590;2024-02-16T10:23:59;14.90;99.90
7494;DHT22;3788;49.902;8.590;2024-02-16T10:26:27;14.90;99.90
7494;DHT22;3788;49.902;8.590;2024-02-16T10:28:55;14.90;99.90
7494;DHT22;3788;49.902;8.590;2024-02-16T10:31:23;14.90;99.90
7494;DHT22;3788;49.902;8.590;2024-02-16T10:33:56;15.00;99.90
7494;DHT22;3788;49.902;8.590;2024-02-16T10:36:26;15.00;99.90
7494;DHT22;3788;49.902;8.590;2024-02-16T10:38:54;15.00;99.60
7494;DHT22;3788;49.902;8.590;2024-02-16T10:41:26;15.00;99.30
7494;DHT22;3788;49.902;8.590;2024-02-16T10:43:54;15.10;99.30
7494;DHT22;3788;49.902;8.590;2024-02-16T10:46:22;15.10;99.20
7494;DHT22;3788;49.902;8.590;2024-02-16T10:48:50;15.10;99.20
7494;DHT22;3788;49.902;8.590;2024-02-16T10:51:21;15.10;99.00
7494;DHT22;3788;49.902;8.590;2024-02-16T10:53:52;15.20;99.00
7494;DHT22;3788;49.902;8.590;2024-02-16T10:56:27;15.40;99.20
7494;DHT22;3788;49.902;8.590;2024-02-16T10:58:54;15.50;99.10
7494;DHT22;3788;49.902;8.590;2024-02-16T11:01:21;15.70;98.50
7494;DHT22;3788;49.902;8.590;2024-02-16T11:03:48;15.80;98.00
7494;DHT22;3788;49.902;8.590;2024-02-16T11:06:15;15.90;98.00
7494;DHT22;3788;49.902;8.590;2024-02-16T11:08:43;15.90;97.60
7494;DHT22;3788;49.902;8.590;2024-02-16T11:11:22;16.00;97.40
7494;DHT22;3788;49.902;8.590;2024-02-16T11:13:49;16.00;97.10
7494;DHT22;3788;49.902;8.590;2024-02-16T11:16:17;16.00;97.00
7494;DHT22;3788;49.902;8.590;2024-02-16T11:18:45;16.00;97.00
7494;DHT22;3788;49.902;8.590;2024-02-16T11:21:15;16.00;97.00
7494;DHT22;3788;49.902;8.590;2024-02-16T11:23:42;16.00;97.20
7494;DHT22;3788;49.902;8.590;2024-02-16T11:26:10;16.10;97.30
7494;DHT22;3788;49.902;8.590;2024-02-16T11:28:40;16.20;97.40
7494;DHT22;3788;49.902;8.590;2024-02-16T11:31:08;16.30;97.50
7494;DHT22;3788;49.902;8.590;2024-02-16T11:33:35;16.40;96.90
7494;DHT22;3788;49.902;8.590;2024-02-16T11:36:03;16.40;96.60
7494;DHT22;3788;49.902;8.590;2024-02-16T11:38:31;16.40;96.70
7494;DHT22;3788;49.902;8.590;2024-02-16T11:41:02;16.40;96.50
7494;DHT22;3788;49.902;8.590;2024-02-16T11:43:30;16.40;96.00
7494;DHT22;3788;49.902;8.590;2024-02-16T11:45:59;16.30;95.90
7494;DHT22;3788;49.902;8.590;2024-02-16T11:48:26;16.30;96.10
7494;DHT22;3788;49.902;8.590;2024-02-16T11:50:59;16.30;96.00
7494;DHT22;3788;49.902;8.590;2024-02-16T11:53:27;16.20;96.10
7494;DHT22;3788;49.902;8.590;2024-02-16T11:55:54;16.30;96.10
7494;DHT22;3788;49.902;8.590;2024-02-16T11:58:21;16.20;95.90
7494;DHT22;3788;49.902;8.590;2024-02-16T12:00:48;16.20;96.00
7494;DHT22;3788;49.902;8.590;2024-02-16T12:03:19;16.10;96.10
7494;DHT22;3788;49.902;8.590;2024-02-16T12:05:51;16.00;96.20
7494;DHT22;3788;49.902;8.590;2024-02-16T12:08:17;15.90;96.30
7494;DHT22;3788;49.902;8.590;2024-02-16T12:10:46;15.90;96.50
7494;DHT22;3788;49.902;8.590;2024-02-16T12:13:13;16.00;96.80
7494;DHT22;3788;49.902;8.590;2024-02-16T12:15:39;16.00;96.90
7494;DHT22;3788;49.902;8.590;2024-02-16T12:18:06;16.00;96.90
7494;DHT22;3788;49.902;8.590;2024-02-16T12:20:34;16.10;97.00
7494;DHT22;3788;49.902;8.590;2024-02-16T12:23:10;16.10;96.90
7494;DHT22;3788;49.902;8.590;2024-02-16T12:25:38;16.20;96.90
7494;DHT22;3788;49.902;8.590;2024-02-16T12:28:05;16.40;96.70
7494;DHT22;3788;49.902;8.590;2024-02-16T12:30:33;16.50;96.30
7494;DHT22;3788;49.902;8.590;2024-02-16T12:32:59;16.60;96.20
7494;DHT22;3788;49.902;8.590;2024-02-16T12:35:26;16.70;95.70
7494;DHT22;3788;49.902;8.590;2024-02-16T12:37:54;16.70;95.40
7494;DHT22;3788;49.902;8.590;2024-02-16T12:40:21;16.70;95.30
7494;DHT22;3788;49.902;8.590;2024-02-16T12:42:48;16.80;95.50
7494;DHT22;3788;49.902;8.590;2024-02-16T12:45:15;16.80;95.50
7494;DHT22;3788;49.902;8.590;2024-02-16T12:47:42;16.90;95.60
7494;DHT22;3788;49.902;8.590;2024-02-16T12:50:09;17.00;95.60
7494;DHT22;3788;49.902;8.590;2024-02-16T12:52:35;17.10;95.60
7494;DHT22;3788;49.902;8.590;2024-02-16T12:55:06;17.20;95.50
7494;DHT22;3788;49.902;8.590;2024-02-16T12:57:34;17.40;95.30
7494;DHT22;3788;49.902;8.590;2024-02-16T13:00:00;17.50;94.90
7494;DHT22;3788;49.902;8.590;2024-02-16T13:02:28;17.50;94.70
7494;DHT22;3788;49.902;8.590;2024-02-16T13:04:55;17.50;94.90
7494;DHT22;3788;49.902;8.590;2024-02-16T13:07:23;17.60;94.80
7494;DHT22;3788;49.902;8.590;2024-02-16T13:09:49;17.70;95.00
7494;DHT22;3788;49.902;8.590;2024-02-16T13:12:17;17.70;94.90
7494;DHT22;3788;49.902;8.590;2024-02-16T13:14:46;17.80;95.00
7494;DHT22;3788;49.902;8.590;2024-02-16T13:17:12;17.70;95.00
7494;DHT22;3788;49.902;8.590;2024-02-16T13:19:39;17.70;95.10
7494;DHT22;3788;49.902;8.590;2024-02-16T13:22:05;17.60;95.00
7494;DHT22;3788;49.902;8.590;2024-02-16T13:24:32;17.60;95.30
7494;DHT22;3788;49.902;8.590;2024-02-16T13:27:00;17.50;95.20
7494;DHT22;3788;49.902;8.590;2024-02-16T13:29:29;17.40;95.60
7494;DHT22;3788;49.902;8.590;2024-02-16T13:31:55;17.30;95.50
7494;DHT22;3788;49.902;8.590;2024-02-16T13:34:22;17.20;95.60
7494;DHT22;3788;49.902;8.590;2024-02-16T13:36:49;17.20;95.70
7494;DHT22;3788;49.902;8.590;2024-02-16T13:39:15;17.10;95.70
7494;DHT22;3788;49.902;8.590;2024-02-16T13:41:42;17.10;95.90
7494;DHT22;3788;49.902;8.590;2024-02-16T13:44:12;17.00;96.10
7494;DHT22;3788;49.902;8.590;2024-02-16T13:46:40;17.00;96.20
7494;DHT22;3788;49.902;8.590;2024-02-16T13:49:07;17.00;96.20
7494;DHT22;3788;49.902;8.590;2024-02-16T13:51:34;17.00;96.10
7494;DHT22;3788;49.902;8.590;2024-02-16T13:54:00;16.90;96.20
7494;DHT22;3788;49.902;8.590;2024-02-16T13:56:27;17.00;96.30
7494;DHT22;3788;49.902;8.590;2024-02-16T13:58:56;16.90;96.40
7494;DHT22;3788;49.902;8.590;2024-02-16T14:01:22;17.00;96.50
7494;DHT22;3788;49.902;8.590;2024-02-16T14:03:51;17.00;96.50
7494;DHT22;3788;49.902;8.590;2024-02-16T14:06:17;17.00;96.70
7494;DHT22;3788;49.902;8.590;2024-02-16T14:08:44;17.00;96.50
7494;DHT22;3788;49.902;8.590;2024-02-16T14:11:13;16.90;96.50
7494;DHT22;3788;49.902;8.590;2024-02-16T14:13:40;16.90;96.30
7494;DHT22;3788;49.902;8.590;2024-02-16T14:16:06;16.90;96.30
7494;DHT22;3788;49.902;8.590;2024-02-16T14:18:33;16.90;96.50
7494;DHT22;3788;49.902;8.590;2024-02-16T14:21:00;16.90;96.60
7494;DHT22;3788;49.902;8.590;2024-02-16T14:23:27;16.80;96.70
7494;DHT22;3788;49.902;8.590;2024-02-16T14:25:54;16.80;96.80
7494;DHT22;3788;49.902;8.590;2024-02-16T14:28:20;16.70;96.90
7494;DHT22;3788;49.902;8.590;2024-02-16T14:30:47;16.70;97.10
7494;DHT22;3788;49.902;8.590;2024-02-16T14:33:14;16.60;97.20
7494;DHT22;3788;49.902;8.590;2024-02-16T14:35:42;16.50;97.40
7494;DHT22;3788;49.902;8.590;2024-02-16T14:38:11;16.50;97.60
7494;DHT22;3788;49.902;8.590;2024-02-16T14:40:39;16.40;97.80
7494;DHT22;3788;49.902;8.590;2024-02-16T14:43:06;16.40;97.80
7494;DHT22;3788;49.902;8.590;2024-02-16T14:45:33;16.30;97.90
7494;DHT22;3788;49.902;8.590;2024-02-16T14:48:04;16.30;98.00
7494;DHT22;3788;49.902;8.590;2024-02-16T14:50:31;16.30;98.10
7494;DHT22;3788;49.902;8.590;2024-02-16T14:52:58;16.30;98.20
7494;DHT22;3788;49.902;8.590;2024-02-16T14:55:26;16.30;98.30
7494;DHT22;3788;49.902;8.590;2024-02-16T14:57:53;16.30;98.50
7494;DHT22;3788;49.902;8.590;2024-02-16T15:00:20;16.30;98.60
7494;DHT22;3788;49.902;8.590;2024-02-16T15:02:48;16.20;98.70
7494;DHT22;3788;49.902;8.590;2024-02-16T15:05:16;16.20;98.80
7494;DHT22;3788;49.902;8.590;2024-02-16T15:07:43;16.20;98.90
7494;DHT22;3788;49.902;8.590;2024-02-16T15:10:10;16.20;98.90
7494;DHT22;3788;49.902;8.590;2024-02-16T15:12:38;16.20;98.90
7494;DHT22;3788;49.902;8.590;2024-02-16T15:15:06;16.20;99.00
7494;DHT22;3788;49.902;8.590;2024-02-16T15:17:32;16.10;99.20
7494;DHT22;3788;49.902;8.590;2024-02-16T15:19:59;16.10;99.40
7494;DHT22;3788;49.902;8.590;2024-02-16T15:22:28;16.00;99.50
7494;DHT22;3788;49.902;8.590;2024-02-16T15:24:55;16.00;99.80
7494;DHT22;3788;49.902;8.590;2024-02-16T15:27:22;15.90;99.90
7494;DHT22;3788;49.902;8.590;2024-02-16T15:29:49;15.90;99.90
7494;DHT22;3788;49.902;8.590;2024-02-16T15:32:16;15.90;99.90
7494;DHT22;3788;49.902;8.590;2024-02-16T15:34:43;15.80;99.90
7494;DHT22;3788;49.902;8.590;2024-02-16T15:37:13;15.80;99.90
7494;DHT22;3788;49.902;8.590;2024-02-16T15:39:40;15.70;99.90
7494;DHT22;3788;49.902;8.590;2024-02-16T15:42:06;15.70;99.90
7494;DHT22;3788;49.902;8.590;2024-02-16T15:44:33;15.60;99.90
7494;DHT22;3788;49.902;8.590;2024-02-16T15:47:02;15.60;99.90
7494;DHT22;3788;49.902;8.590;2024-02-16T15:49:28;15.50;99.90
7494;DHT22;3788;49.902;8.590;2024-02-16T15:51:55;15.40;99.90
7494;DHT22;3788;49.902;8.590;2024-02-16T15:54:22;15.40;99.90
7494;DHT22;3788;49.902;8.590;2024-02-16T15:56:51;15.30;99.90
7494;DHT22;3788;49.902;8.590;2024-02-16T15:59:18;15.20;99.90
7494;DHT22;3788;49.902;8.590;2024-02-16T16:01:44;15.20;99.90